ELY023 LLBG-KEWR
Flight info
| Callsign | ELY023 |
|---|---|
| Flight time | N/A |
| Altitude | 34000 |
| Route | SUVAS DCT TEZAK N128 OTHON DCT VAXOS UN128 RDS UL609 MES DCT DISOR/N0488F360 DCT LONTA UL608 DOLEV DCT YUYUH DCT GENLU DCT PODOB DCT BOSNA DCT MARIL DCT OKSIG DCT KUSIB DCT GORPA DCT TATZI DCT BABEG DCT LIRSU DCT DENUT L610 RAPIX DCT LESTA UP6 RODOL UM65 TENSO L603 BELOX DCT REMSI DCT MASOP DCT APSOV DCT RUXIN DCT SUNOT/M085F360 DCT 5730N02000W 5730N03000W 57N040W 5530N05000W DCT KODIK/N0491F360 N690A QUBIS/N0482F400 DCT KJOHN DCT HANAA FLOSI4 |
| Aircraft | B789/H-SACDE1E2E3GHIJ1J3J4J5LM1OP2RVWXY/LB2D1 |
Departure
| Time | 2026-05-05 07:31 |
|---|---|
| Airport | Ben Gurion International Airport (LLBG) |
Arrival
| Time | N/A |
|---|---|
| Airport | Newark Liberty International Airport (KEWR) |
| Time | Latitude | Longitude | Altitude | Speed | Heading |
|---|---|---|---|---|---|
| 2026-05-05 06:52 | 32.00283 | 34.87588 | 125 ft | 0 kts | 5° |
| 2026-05-05 07:14 | 32.00278 | 34.87587 | 121 ft | 2 kts | 5° |
| 2026-05-05 07:14 | 32.00261 | 34.87585 | 123 ft | 2 kts | 7° |
| 2026-05-05 07:14 | 32.00245 | 34.87583 | 120 ft | 2 kts | 2° |
| 2026-05-05 07:14 | 32.00228 | 34.87585 | 120 ft | 2 kts | 350° |
| 2026-05-05 07:15 | 32.00212 | 34.87590 | 120 ft | 2 kts | 331° |
| 2026-05-05 07:15 | 32.00200 | 34.87603 | 120 ft | 2 kts | 311° |
| 2026-05-05 07:15 | 32.00187 | 34.87615 | 120 ft | 2 kts | 340° |
| 2026-05-05 07:15 | 32.00171 | 34.87617 | 121 ft | 2 kts | 8° |
| 2026-05-05 07:16 | 32.00159 | 34.87612 | 120 ft | 2 kts | 28° |
| 2026-05-05 07:16 | 32.00156 | 34.87610 | 120 ft | 2 kts | 32° |
| 2026-05-05 07:17 | 32.00141 | 34.87600 | 120 ft | 2 kts | 31° |
| 2026-05-05 07:17 | 32.00127 | 34.87590 | 120 ft | 2 kts | 31° |
| 2026-05-05 07:17 | 32.00115 | 34.87581 | 120 ft | 1 kts | 32° |
| 2026-05-05 07:17 | 32.00113 | 34.87580 | 120 ft | 0 kts | 32° |
| 2026-05-05 07:19 | 32.00131 | 34.87593 | 120 ft | 5 kts | 31° |
| 2026-05-05 07:20 | 32.00191 | 34.87637 | 120 ft | 15 kts | 31° |
| 2026-05-05 07:20 | 32.00286 | 34.87704 | 121 ft | 16 kts | 31° |
| 2026-05-05 07:20 | 32.00381 | 34.87772 | 122 ft | 16 kts | 31° |
| 2026-05-05 07:20 | 32.00475 | 34.87838 | 121 ft | 14 kts | 31° |
| 2026-05-05 07:21 | 32.00559 | 34.87898 | 121 ft | 14 kts | 31° |
| 2026-05-05 07:21 | 32.00645 | 34.87959 | 121 ft | 11 kts | 31° |
| 2026-05-05 07:21 | 32.00650 | 34.87963 | 121 ft | 0 kts | 31° |
| 2026-05-05 07:22 | 32.00665 | 34.87974 | 121 ft | 6 kts | 31° |
| 2026-05-05 07:22 | 32.00723 | 34.88016 | 121 ft | 14 kts | 32° |
| 2026-05-05 07:22 | 32.00811 | 34.88080 | 122 ft | 11 kts | 31° |
| 2026-05-05 07:22 | 32.00880 | 34.88130 | 121 ft | 12 kts | 31° |
| 2026-05-05 07:23 | 32.00955 | 34.88185 | 122 ft | 13 kts | 32° |
| 2026-05-05 07:23 | 32.01033 | 34.88243 | 121 ft | 13 kts | 31° |
| 2026-05-05 07:23 | 32.01102 | 34.88291 | 121 ft | 11 kts | 30° |
| 2026-05-05 07:23 | 32.01167 | 34.88336 | 122 ft | 11 kts | 30° |
| 2026-05-05 07:24 | 32.01229 | 34.88383 | 122 ft | 11 kts | 34° |
| 2026-05-05 07:24 | 32.01290 | 34.88437 | 121 ft | 11 kts | 40° |
| 2026-05-05 07:24 | 32.01346 | 34.88501 | 121 ft | 12 kts | 45° |
| 2026-05-05 07:24 | 32.01395 | 34.88575 | 121 ft | 12 kts | 56° |
| 2026-05-05 07:25 | 32.01440 | 34.88657 | 120 ft | 12 kts | 59° |
| 2026-05-05 07:25 | 32.01479 | 34.88748 | 123 ft | 13 kts | 72° |
| 2026-05-05 07:25 | 32.01497 | 34.88852 | 125 ft | 13 kts | 79° |
| 2026-05-05 07:25 | 32.01514 | 34.88964 | 121 ft | 14 kts | 80° |
| 2026-05-05 07:26 | 32.01533 | 34.89080 | 121 ft | 15 kts | 79° |
| 2026-05-05 07:26 | 32.01550 | 34.89194 | 115 ft | 14 kts | 79° |
| 2026-05-05 07:26 | 32.01568 | 34.89304 | 123 ft | 13 kts | 79° |
| 2026-05-05 07:26 | 32.01584 | 34.89410 | 123 ft | 13 kts | 80° |
| 2026-05-05 07:27 | 32.01600 | 34.89512 | 122 ft | 12 kts | 79° |
| 2026-05-05 07:27 | 32.01614 | 34.89611 | 121 ft | 12 kts | 85° |
| 2026-05-05 07:27 | 32.01650 | 34.89683 | 120 ft | 9 kts | 30° |
| 2026-05-05 07:27 | 32.01656 | 34.89687 | 121 ft | 0 kts | 29° |
| 2026-05-05 07:28 | 32.01663 | 34.89691 | 120 ft | 4 kts | 30° |
| 2026-05-05 07:28 | 32.01705 | 34.89720 | 120 ft | 9 kts | 30° |
| 2026-05-05 07:28 | 32.01762 | 34.89757 | 121 ft | 10 kts | 29° |
| 2026-05-05 07:29 | 32.01822 | 34.89773 | 119 ft | 9 kts | 340° |
| 2026-05-05 07:29 | 32.01842 | 34.89718 | 121 ft | 8 kts | 259° |
| 2026-05-05 07:29 | 32.01841 | 34.89712 | 121 ft | 0 kts | 259° |
| 2026-05-05 07:30 | 32.01839 | 34.89694 | 120 ft | 11 kts | 260° |
| 2026-05-05 07:30 | 32.01790 | 34.89374 | 119 ft | 70 kts | 259° |
| 2026-05-05 07:31 | 32.01668 | 34.88581 | 125 ft | 126 kts | 259° |
| 2026-05-05 07:31 | 32.01483 | 34.87380 | 124 ft | 173 kts | 259° |
| 2026-05-05 07:31 | 32.01256 | 34.85913 | 676 ft | 181 kts | 258° |
| 2026-05-05 07:31 | 32.00954 | 34.84471 | 1606 ft | 181 kts | 254° |
| 2026-05-05 07:32 | 32.00660 | 34.83024 | 2423 ft | 184 kts | 257° |
| 2026-05-05 07:32 | 32.00363 | 34.81517 | 3057 ft | 189 kts | 257° |
| 2026-05-05 07:32 | 32.00049 | 34.79970 | 3487 ft | 206 kts | 256° |
| 2026-05-05 07:32 | 31.99685 | 34.78215 | 3705 ft | 233 kts | 256° |
| 2026-05-05 07:33 | 31.99291 | 34.76271 | 3980 ft | 257 kts | 259° |
| 2026-05-05 07:33 | 31.99424 | 34.74186 | 4862 ft | 256 kts | 284° |
| 2026-05-05 07:33 | 31.99966 | 34.72156 | 5694 ft | 262 kts | 287° |
| 2026-05-05 07:33 | 32.00607 | 34.70132 | 6544 ft | 265 kts | 289° |
| 2026-05-05 07:34 | 32.01266 | 34.68093 | 7328 ft | 268 kts | 288° |
| 2026-05-05 07:34 | 32.01840 | 34.65989 | 8134 ft | 270 kts | 282° |
| 2026-05-05 07:34 | 32.02272 | 34.63820 | 8992 ft | 273 kts | 282° |
| 2026-05-05 07:34 | 32.02735 | 34.61665 | 9838 ft | 277 kts | 284° |
| 2026-05-05 07:35 | 32.03252 | 34.59472 | 10641 ft | 279 kts | 284° |
| 2026-05-05 07:35 | 32.03782 | 34.57218 | 11093 ft | 296 kts | 284° |
| 2026-05-05 07:35 | 32.04342 | 34.54771 | 11203 ft | 323 kts | 284° |
| 2026-05-05 07:35 | 32.04940 | 34.52147 | 11782 ft | 331 kts | 284° |
| 2026-05-05 07:36 | 32.05541 | 34.49528 | 12698 ft | 332 kts | 284° |
| 2026-05-05 07:36 | 32.06148 | 34.46881 | 13548 ft | 334 kts | 284° |
| 2026-05-05 07:36 | 32.06755 | 34.44229 | 14335 ft | 337 kts | 284° |
| 2026-05-05 07:36 | 32.07359 | 34.41582 | 15025 ft | 340 kts | 284° |
| 2026-05-05 07:37 | 32.07976 | 34.38879 | 15743 ft | 343 kts | 284° |
| 2026-05-05 07:37 | 32.08599 | 34.36147 | 16442 ft | 347 kts | 284° |
| 2026-05-05 07:37 | 32.09229 | 34.33380 | 17116 ft | 350 kts | 284° |
| 2026-05-05 07:37 | 32.09864 | 34.30591 | 17804 ft | 354 kts | 284° |
| 2026-05-05 07:38 | 32.10504 | 34.27772 | 18448 ft | 357 kts | 284° |
| 2026-05-05 07:38 | 32.11149 | 34.24929 | 19033 ft | 361 kts | 284° |
| 2026-05-05 07:38 | 32.11800 | 34.22057 | 19617 ft | 364 kts | 284° |
| 2026-05-05 07:38 | 32.12456 | 34.19164 | 20166 ft | 367 kts | 284° |
| 2026-05-05 07:39 | 32.13119 | 34.16233 | 20720 ft | 370 kts | 284° |
| 2026-05-05 07:39 | 32.13785 | 34.13286 | 21262 ft | 374 kts | 284° |
| 2026-05-05 07:39 | 32.14448 | 34.10349 | 21779 ft | 377 kts | 284° |
| 2026-05-05 07:39 | 32.15125 | 34.07345 | 22291 ft | 380 kts | 284° |
| 2026-05-05 07:40 | 32.15805 | 34.04324 | 22814 ft | 383 kts | 284° |
| 2026-05-05 07:40 | 32.16516 | 34.01284 | 23292 ft | 386 kts | 289° |
| 2026-05-05 07:40 | 32.17608 | 33.98375 | 23731 ft | 390 kts | 298° |
| 2026-05-05 07:40 | 32.19100 | 33.95690 | 24132 ft | 393 kts | 303° |
| 2026-05-05 07:41 | 32.20690 | 33.93041 | 24530 ft | 396 kts | 303° |
| 2026-05-05 07:41 | 32.22292 | 33.90382 | 24924 ft | 398 kts | 303° |
| 2026-05-05 07:41 | 32.23891 | 33.87706 | 25322 ft | 400 kts | 303° |
| 2026-05-05 07:41 | 32.25506 | 33.85016 | 25714 ft | 402 kts | 303° |
| 2026-05-05 07:42 | 32.27137 | 33.82315 | 26086 ft | 404 kts | 303° |
| 2026-05-05 07:42 | 32.28774 | 33.79596 | 26451 ft | 406 kts | 303° |
| 2026-05-05 07:42 | 32.30395 | 33.76895 | 26821 ft | 409 kts | 303° |
| 2026-05-05 07:42 | 32.32050 | 33.74135 | 27166 ft | 411 kts | 303° |
| 2026-05-05 07:43 | 32.33712 | 33.71366 | 27522 ft | 413 kts | 303° |
| 2026-05-05 07:43 | 32.35369 | 33.68605 | 27874 ft | 415 kts | 303° |
| 2026-05-05 07:43 | 32.37052 | 33.65795 | 28201 ft | 418 kts | 303° |
| 2026-05-05 07:43 | 32.38164 | 33.63938 | 28418 ft | 419 kts | 303° |
| 2026-05-05 07:44 | 32.39857 | 33.61107 | 28747 ft | 421 kts | 303° |
| 2026-05-05 07:44 | 32.41564 | 33.58254 | 29057 ft | 424 kts | 303° |
| 2026-05-05 07:44 | 32.43273 | 33.55394 | 29375 ft | 426 kts | 303° |
| 2026-05-05 07:44 | 32.44985 | 33.52525 | 29675 ft | 428 kts | 303° |
| 2026-05-05 07:45 | 32.46683 | 33.49680 | 29980 ft | 430 kts | 303° |
| 2026-05-05 07:45 | 32.48422 | 33.46762 | 30238 ft | 432 kts | 303° |
| 2026-05-05 07:45 | 32.50161 | 33.43842 | 30505 ft | 433 kts | 303° |
| 2026-05-05 07:45 | 32.51907 | 33.40908 | 30774 ft | 435 kts | 303° |
| 2026-05-05 07:46 | 32.53630 | 33.38012 | 31038 ft | 436 kts | 303° |
| 2026-05-05 07:46 | 32.55383 | 33.35062 | 31287 ft | 437 kts | 303° |
| 2026-05-05 07:46 | 32.57144 | 33.32096 | 31529 ft | 439 kts | 303° |
| 2026-05-05 07:46 | 32.58908 | 33.29123 | 31776 ft | 440 kts | 303° |
| 2026-05-05 07:47 | 32.60653 | 33.26179 | 32016 ft | 442 kts | 302° |
| 2026-05-05 07:47 | 32.62424 | 33.23190 | 32245 ft | 443 kts | 302° |
| 2026-05-05 07:47 | 32.64202 | 33.20186 | 32465 ft | 444 kts | 302° |
| 2026-05-05 07:47 | 32.65989 | 33.17165 | 32681 ft | 446 kts | 302° |
| 2026-05-05 07:48 | 32.67758 | 33.14171 | 32902 ft | 447 kts | 302° |
| 2026-05-05 07:48 | 32.69548 | 33.11141 | 33215 ft | 446 kts | 302° |
| 2026-05-05 07:48 | 32.71324 | 33.08131 | 33548 ft | 445 kts | 302° |
| 2026-05-05 07:48 | 32.73106 | 33.05108 | 33822 ft | 445 kts | 302° |
| 2026-05-05 07:49 | 32.74865 | 33.02120 | 34007 ft | 446 kts | 302° |
| 2026-05-05 07:49 | 32.76657 | 32.99075 | 34030 ft | 450 kts | 302° |
| 2026-05-05 07:49 | 32.80222 | 32.93015 | 34023 ft | 447 kts | 302° |
| 2026-05-05 07:50 | 32.83775 | 32.86958 | 34021 ft | 446 kts | 302° |
| 2026-05-05 07:50 | 32.87334 | 32.80885 | 34025 ft | 446 kts | 302° |
| 2026-05-05 07:51 | 32.90861 | 32.74857 | 34030 ft | 446 kts | 302° |
| 2026-05-05 07:51 | 32.94410 | 32.68781 | 34018 ft | 446 kts | 302° |
| 2026-05-05 07:52 | 32.97952 | 32.62707 | 34017 ft | 446 kts | 302° |
| 2026-05-05 07:52 | 33.01490 | 32.56629 | 34021 ft | 446 kts | 302° |
| 2026-05-05 07:53 | 33.05001 | 32.50588 | 34021 ft | 446 kts | 302° |
| 2026-05-05 07:53 | 33.08543 | 32.44485 | 34020 ft | 445 kts | 302° |
| 2026-05-05 07:54 | 33.12063 | 32.38409 | 34026 ft | 445 kts | 302° |
| 2026-05-05 07:54 | 33.15562 | 32.32359 | 34023 ft | 445 kts | 302° |
| 2026-05-05 07:55 | 33.19083 | 32.26262 | 34027 ft | 444 kts | 302° |
| 2026-05-05 07:55 | 33.22566 | 32.20219 | 34023 ft | 443 kts | 302° |
| 2026-05-05 07:56 | 33.26057 | 32.14153 | 34020 ft | 443 kts | 302° |
| 2026-05-05 07:56 | 33.29543 | 32.08087 | 34022 ft | 442 kts | 302° |
| 2026-05-05 07:57 | 33.33009 | 32.02045 | 34023 ft | 442 kts | 303° |
| 2026-05-05 07:57 | 33.36493 | 31.95962 | 34025 ft | 442 kts | 303° |
| 2026-05-05 07:58 | 33.39965 | 31.89889 | 34021 ft | 441 kts | 303° |
| 2026-05-05 07:58 | 33.43435 | 31.83810 | 34021 ft | 442 kts | 303° |
| 2026-05-05 07:59 | 33.46880 | 31.77765 | 34020 ft | 442 kts | 303° |
| 2026-05-05 07:59 | 33.50356 | 31.71656 | 34020 ft | 442 kts | 303° |
| 2026-05-05 08:00 | 33.53791 | 31.65608 | 34017 ft | 442 kts | 303° |
| 2026-05-05 08:00 | 33.57258 | 31.59495 | 34022 ft | 443 kts | 303° |
| 2026-05-05 08:01 | 33.60718 | 31.53383 | 34014 ft | 443 kts | 303° |
| 2026-05-05 08:01 | 33.64178 | 31.47260 | 34014 ft | 443 kts | 303° |
| 2026-05-05 08:02 | 33.67622 | 31.41156 | 34017 ft | 444 kts | 303° |
| 2026-05-05 08:02 | 33.71087 | 31.35005 | 34030 ft | 445 kts | 303° |
| 2026-05-05 08:03 | 33.74557 | 31.28835 | 34033 ft | 444 kts | 303° |
| 2026-05-05 08:03 | 33.78002 | 31.22697 | 34030 ft | 445 kts | 303° |
| 2026-05-05 08:04 | 33.81478 | 31.16495 | 34030 ft | 445 kts | 303° |
| 2026-05-05 08:04 | 33.84918 | 31.10346 | 34025 ft | 445 kts | 302° |
| 2026-05-05 08:05 | 33.88375 | 31.04155 | 34034 ft | 445 kts | 303° |
| 2026-05-05 08:05 | 33.91808 | 30.97999 | 34022 ft | 445 kts | 303° |
| 2026-05-05 08:06 | 33.95250 | 30.91816 | 34025 ft | 445 kts | 303° |
| 2026-05-05 08:06 | 33.98692 | 30.85622 | 34027 ft | 444 kts | 303° |
| 2026-05-05 08:07 | 34.02124 | 30.79434 | 34024 ft | 444 kts | 303° |
| 2026-05-05 08:07 | 34.05550 | 30.73248 | 34023 ft | 444 kts | 303° |
| 2026-05-05 08:08 | 34.08978 | 30.67047 | 34028 ft | 444 kts | 303° |
| 2026-05-05 08:08 | 34.12407 | 30.60834 | 34025 ft | 445 kts | 303° |
| 2026-05-05 08:09 | 34.15838 | 30.54606 | 34030 ft | 445 kts | 303° |
| 2026-05-05 08:09 | 34.19263 | 30.48378 | 34025 ft | 444 kts | 303° |
| 2026-05-05 08:10 | 34.22682 | 30.42150 | 34026 ft | 445 kts | 303° |
| 2026-05-05 08:10 | 34.26083 | 30.35946 | 34031 ft | 445 kts | 303° |
| 2026-05-05 08:11 | 34.29509 | 30.29683 | 34031 ft | 446 kts | 303° |
| 2026-05-05 08:11 | 34.32922 | 30.23435 | 34031 ft | 446 kts | 303° |
| 2026-05-05 08:12 | 34.36340 | 30.17165 | 34034 ft | 446 kts | 303° |
| 2026-05-05 08:12 | 34.39767 | 30.10868 | 34033 ft | 447 kts | 303° |
| 2026-05-05 08:13 | 34.43168 | 30.04609 | 34043 ft | 447 kts | 303° |
| 2026-05-05 08:13 | 34.46862 | 29.98539 | 34039 ft | 448 kts | 314° |
| 2026-05-05 08:14 | 34.51229 | 29.93159 | 34032 ft | 449 kts | 313° |
| 2026-05-05 08:14 | 34.55637 | 29.87730 | 34036 ft | 450 kts | 313° |
| 2026-05-05 08:15 | 34.60009 | 29.82335 | 34030 ft | 450 kts | 313° |
| 2026-05-05 08:15 | 34.64415 | 29.76889 | 34031 ft | 451 kts | 313° |
| 2026-05-05 08:16 | 34.68783 | 29.71480 | 34036 ft | 451 kts | 313° |
| 2026-05-05 08:16 | 34.73193 | 29.66011 | 34022 ft | 451 kts | 313° |
| 2026-05-05 08:17 | 34.77582 | 29.60560 | 34017 ft | 452 kts | 313° |
| 2026-05-05 08:17 | 34.81991 | 29.55075 | 34017 ft | 452 kts | 313° |
| 2026-05-05 08:18 | 34.86369 | 29.49620 | 34020 ft | 452 kts | 313° |
| 2026-05-05 08:18 | 34.90778 | 29.44116 | 34018 ft | 452 kts | 313° |
| 2026-05-05 08:19 | 34.95142 | 29.38661 | 34017 ft | 452 kts | 313° |
| 2026-05-05 08:19 | 34.99601 | 29.33226 | 34030 ft | 452 kts | 320° |
| 2026-05-05 08:20 | 35.04608 | 29.28610 | 34032 ft | 455 kts | 321° |
| 2026-05-05 08:20 | 35.09713 | 29.23968 | 34031 ft | 455 kts | 321° |
| 2026-05-05 08:21 | 35.14774 | 29.19338 | 34034 ft | 456 kts | 321° |
| 2026-05-05 08:21 | 35.19858 | 29.14691 | 34034 ft | 456 kts | 321° |
| 2026-05-05 08:22 | 35.24929 | 29.10042 | 34035 ft | 456 kts | 321° |
| 2026-05-05 08:22 | 35.30002 | 29.05387 | 34031 ft | 456 kts | 321° |
| 2026-05-05 08:23 | 35.35067 | 29.00730 | 34030 ft | 456 kts | 321° |
| 2026-05-05 08:23 | 35.40141 | 28.96058 | 34034 ft | 456 kts | 322° |
| 2026-05-05 08:24 | 35.45217 | 28.91377 | 34017 ft | 456 kts | 321° |
| 2026-05-05 08:24 | 35.50249 | 28.86729 | 34012 ft | 455 kts | 321° |
| 2026-05-05 08:25 | 35.55324 | 28.82033 | 34016 ft | 456 kts | 321° |
| 2026-05-05 08:25 | 35.60386 | 28.77342 | 34019 ft | 456 kts | 321° |
| 2026-05-05 08:26 | 35.65457 | 28.72635 | 34022 ft | 456 kts | 321° |
| 2026-05-05 08:26 | 35.70497 | 28.67948 | 34023 ft | 456 kts | 321° |
| 2026-05-05 08:27 | 35.75569 | 28.63225 | 34025 ft | 456 kts | 321° |
| 2026-05-05 08:27 | 35.80634 | 28.58501 | 34023 ft | 456 kts | 321° |
| 2026-05-05 08:28 | 35.85665 | 28.53800 | 34021 ft | 456 kts | 321° |
| 2026-05-05 08:28 | 35.90713 | 28.49075 | 34027 ft | 457 kts | 321° |
| 2026-05-05 08:29 | 35.94924 | 28.45129 | 34025 ft | 457 kts | 321° |
| 2026-05-05 08:30 | 36.02540 | 28.37977 | 34030 ft | 457 kts | 321° |
| 2026-05-05 08:30 | 36.07579 | 28.33226 | 34029 ft | 457 kts | 321° |
| 2026-05-05 08:31 | 36.12644 | 28.28445 | 34027 ft | 457 kts | 321° |
| 2026-05-05 08:31 | 36.17703 | 28.23661 | 34031 ft | 457 kts | 321° |
| 2026-05-05 08:32 | 36.22756 | 28.18876 | 34028 ft | 458 kts | 321° |
| 2026-05-05 08:32 | 36.27800 | 28.14090 | 34029 ft | 457 kts | 321° |
| 2026-05-05 08:33 | 36.32859 | 28.09283 | 34027 ft | 457 kts | 321° |
| 2026-05-05 08:33 | 36.37598 | 28.04017 | 34028 ft | 459 kts | 316° |
| 2026-05-05 08:34 | 36.42306 | 27.98634 | 34021 ft | 460 kts | 316° |
| 2026-05-05 08:34 | 36.46980 | 27.93206 | 34027 ft | 460 kts | 316° |
| 2026-05-05 08:35 | 36.51658 | 27.87803 | 34032 ft | 460 kts | 316° |
| 2026-05-05 08:35 | 36.56341 | 27.82364 | 34034 ft | 460 kts | 316° |
| 2026-05-05 08:36 | 36.60986 | 27.76971 | 34041 ft | 459 kts | 316° |
| 2026-05-05 08:36 | 36.65651 | 27.71540 | 34041 ft | 459 kts | 316° |
| 2026-05-05 08:37 | 36.70319 | 27.66097 | 34042 ft | 459 kts | 316° |
| 2026-05-05 08:37 | 36.74977 | 27.60658 | 34045 ft | 459 kts | 316° |
| 2026-05-05 08:38 | 36.79638 | 27.55204 | 34045 ft | 458 kts | 316° |
| 2026-05-05 08:38 | 36.84284 | 27.49759 | 34050 ft | 458 kts | 316° |
| 2026-05-05 08:39 | 36.88905 | 27.44333 | 34058 ft | 459 kts | 316° |
| 2026-05-05 08:39 | 36.93559 | 27.38860 | 34057 ft | 458 kts | 316° |
| 2026-05-05 08:40 | 36.98204 | 27.33387 | 34061 ft | 458 kts | 316° |
| 2026-05-05 08:40 | 37.02849 | 27.27904 | 34060 ft | 458 kts | 316° |
| 2026-05-05 08:41 | 37.07485 | 27.22422 | 34059 ft | 458 kts | 316° |
| 2026-05-05 08:41 | 37.12115 | 27.16939 | 34060 ft | 458 kts | 316° |
| 2026-05-05 08:42 | 37.16715 | 27.11481 | 34062 ft | 458 kts | 316° |
| 2026-05-05 08:42 | 37.21337 | 27.05986 | 34069 ft | 458 kts | 316° |
| 2026-05-05 08:43 | 37.25968 | 27.00472 | 34073 ft | 458 kts | 316° |
| 2026-05-05 08:43 | 37.30563 | 26.94991 | 34072 ft | 457 kts | 316° |
| 2026-05-05 08:44 | 37.35183 | 26.89470 | 34076 ft | 457 kts | 316° |
| 2026-05-05 08:44 | 37.39789 | 26.83962 | 34084 ft | 456 kts | 317° |
| 2026-05-05 08:45 | 37.44602 | 26.78764 | 34084 ft | 456 kts | 319° |
| 2026-05-05 08:45 | 37.49387 | 26.73584 | 34089 ft | 455 kts | 319° |
| 2026-05-05 08:46 | 37.54189 | 26.68400 | 34086 ft | 454 kts | 319° |
| 2026-05-05 08:46 | 37.58980 | 26.63204 | 34088 ft | 454 kts | 319° |
| 2026-05-05 08:47 | 37.63773 | 26.58004 | 34077 ft | 454 kts | 319° |
| 2026-05-05 08:47 | 37.68558 | 26.52800 | 34079 ft | 453 kts | 319° |
| 2026-05-05 08:48 | 37.73342 | 26.47605 | 34086 ft | 453 kts | 319° |
| 2026-05-05 08:48 | 37.78098 | 26.42431 | 34090 ft | 454 kts | 319° |
| 2026-05-05 08:49 | 37.82883 | 26.37214 | 34093 ft | 454 kts | 319° |
| 2026-05-05 08:49 | 37.87640 | 26.32020 | 34094 ft | 454 kts | 319° |
| 2026-05-05 08:50 | 37.92419 | 26.26772 | 34084 ft | 453 kts | 319° |
| 2026-05-05 08:50 | 37.97183 | 26.21538 | 34082 ft | 453 kts | 319° |
| 2026-05-05 08:51 | 38.01949 | 26.16291 | 34078 ft | 453 kts | 319° |
| 2026-05-05 08:51 | 38.06668 | 26.11085 | 34079 ft | 452 kts | 319° |
| 2026-05-05 08:52 | 38.11412 | 26.05841 | 34079 ft | 452 kts | 319° |
| 2026-05-05 08:52 | 38.16149 | 26.00596 | 34076 ft | 451 kts | 319° |
| 2026-05-05 08:53 | 38.20898 | 25.95328 | 34083 ft | 452 kts | 319° |
| 2026-05-05 08:53 | 38.25621 | 25.90122 | 34090 ft | 450 kts | 323° |
| 2026-05-05 08:54 | 38.30577 | 25.85213 | 34095 ft | 451 kts | 322° |
| 2026-05-05 08:54 | 38.35529 | 25.80276 | 34096 ft | 451 kts | 322° |
| 2026-05-05 08:55 | 38.40439 | 25.75384 | 34102 ft | 451 kts | 322° |
| 2026-05-05 08:55 | 38.45396 | 25.70430 | 34102 ft | 451 kts | 322° |
| 2026-05-05 08:56 | 38.50315 | 25.65509 | 34104 ft | 451 kts | 322° |
| 2026-05-05 08:56 | 38.55255 | 25.60555 | 34104 ft | 451 kts | 322° |
| 2026-05-05 08:57 | 38.60193 | 25.55595 | 34101 ft | 450 kts | 322° |
| 2026-05-05 08:57 | 38.65084 | 25.50674 | 34097 ft | 449 kts | 322° |
| 2026-05-05 08:58 | 38.70001 | 25.45719 | 34094 ft | 449 kts | 322° |
| 2026-05-05 08:58 | 38.74919 | 25.40752 | 34096 ft | 450 kts | 322° |
| 2026-05-05 08:59 | 38.79836 | 25.35778 | 34087 ft | 450 kts | 322° |
| 2026-05-05 08:59 | 38.84736 | 25.30813 | 34092 ft | 449 kts | 322° |
| 2026-05-05 09:00 | 38.89642 | 25.25832 | 34091 ft | 449 kts | 322° |
| 2026-05-05 09:00 | 38.94519 | 25.20871 | 34095 ft | 449 kts | 322° |
| 2026-05-05 09:01 | 38.99432 | 25.15865 | 34099 ft | 449 kts | 322° |
| 2026-05-05 09:01 | 39.04290 | 25.10905 | 34095 ft | 448 kts | 322° |
| 2026-05-05 09:02 | 39.09172 | 25.05914 | 34101 ft | 447 kts | 322° |
| 2026-05-05 09:02 | 39.14054 | 25.00912 | 34101 ft | 448 kts | 322° |
| 2026-05-05 09:03 | 39.18928 | 24.95909 | 34103 ft | 448 kts | 322° |
| 2026-05-05 09:03 | 39.21351 | 24.93418 | 34424 ft | 445 kts | 322° |
| 2026-05-05 09:03 | 39.23746 | 24.90954 | 34638 ft | 445 kts | 322° |
| 2026-05-05 09:03 | 39.26166 | 24.88463 | 34858 ft | 445 kts | 322° |
| 2026-05-05 09:04 | 39.28588 | 24.85967 | 35077 ft | 445 kts | 322° |
| 2026-05-05 09:04 | 39.31007 | 24.83472 | 35312 ft | 445 kts | 322° |
| 2026-05-05 09:04 | 39.33429 | 24.80971 | 35526 ft | 445 kts | 322° |
| 2026-05-05 09:04 | 39.35849 | 24.78470 | 35742 ft | 445 kts | 322° |
| 2026-05-05 09:05 | 39.38242 | 24.75995 | 35901 ft | 446 kts | 322° |
| 2026-05-05 09:05 | 39.40681 | 24.73470 | 36067 ft | 447 kts | 322° |
| 2026-05-05 09:05 | 39.43126 | 24.70936 | 36077 ft | 451 kts | 322° |
| 2026-05-05 09:06 | 39.47981 | 24.65898 | 36076 ft | 447 kts | 321° |
| 2026-05-05 09:06 | 39.52827 | 24.60860 | 36078 ft | 446 kts | 321° |
| 2026-05-05 09:07 | 39.57658 | 24.55828 | 36078 ft | 447 kts | 321° |
| 2026-05-05 09:07 | 39.62510 | 24.50765 | 36080 ft | 446 kts | 321° |
| 2026-05-05 09:08 | 39.67357 | 24.45698 | 36075 ft | 447 kts | 321° |
| 2026-05-05 09:08 | 39.72202 | 24.40624 | 36076 ft | 447 kts | 321° |
| 2026-05-05 09:09 | 39.77009 | 24.35581 | 36089 ft | 447 kts | 321° |
| 2026-05-05 09:09 | 39.81853 | 24.30488 | 36085 ft | 447 kts | 321° |
| 2026-05-05 09:10 | 39.86688 | 24.25396 | 36090 ft | 447 kts | 321° |
| 2026-05-05 09:10 | 39.91522 | 24.20295 | 36082 ft | 446 kts | 321° |
| 2026-05-05 09:11 | 39.96336 | 24.15206 | 36084 ft | 447 kts | 321° |
| 2026-05-05 09:11 | 40.01152 | 24.10105 | 36084 ft | 447 kts | 321° |
| 2026-05-05 09:12 | 40.05996 | 24.04966 | 36086 ft | 447 kts | 321° |
| 2026-05-05 09:12 | 40.10801 | 23.99857 | 36086 ft | 447 kts | 321° |
| 2026-05-05 09:13 | 40.15629 | 23.94711 | 36069 ft | 447 kts | 321° |
| 2026-05-05 09:13 | 40.20451 | 23.89571 | 36067 ft | 447 kts | 321° |
| 2026-05-05 09:14 | 40.25242 | 23.84446 | 36071 ft | 446 kts | 321° |
| 2026-05-05 09:14 | 40.30061 | 23.79285 | 36072 ft | 446 kts | 321° |
| 2026-05-05 09:15 | 40.34053 | 23.75001 | 36072 ft | 446 kts | 321° |
| 2026-05-05 09:15 | 40.39644 | 23.68990 | 36075 ft | 446 kts | 321° |
| 2026-05-05 09:16 | 40.43669 | 23.64654 | 36076 ft | 446 kts | 321° |
| 2026-05-05 09:16 | 40.48442 | 23.59504 | 36084 ft | 446 kts | 321° |
| 2026-05-05 09:17 | 40.53240 | 23.54317 | 36084 ft | 447 kts | 321° |
| 2026-05-05 09:17 | 40.58045 | 23.49112 | 36082 ft | 447 kts | 321° |
| 2026-05-05 09:18 | 40.62846 | 23.43901 | 36085 ft | 447 kts | 321° |
| 2026-05-05 09:18 | 40.67650 | 23.38678 | 36085 ft | 447 kts | 321° |
| 2026-05-05 09:19 | 40.72410 | 23.33493 | 36082 ft | 447 kts | 321° |
| 2026-05-05 09:19 | 40.77205 | 23.28258 | 36080 ft | 447 kts | 321° |
| 2026-05-05 09:20 | 40.81999 | 23.23016 | 36081 ft | 447 kts | 321° |
| 2026-05-05 09:20 | 40.86807 | 23.17747 | 36082 ft | 447 kts | 321° |
| 2026-05-05 09:21 | 40.91566 | 23.12522 | 36075 ft | 447 kts | 321° |
| 2026-05-05 09:21 | 40.96362 | 23.07246 | 36080 ft | 447 kts | 321° |
| 2026-05-05 09:22 | 41.01132 | 23.01989 | 36081 ft | 447 kts | 321° |
| 2026-05-05 09:22 | 41.05918 | 22.96704 | 36079 ft | 447 kts | 321° |
| 2026-05-05 09:23 | 41.10694 | 22.91418 | 36083 ft | 447 kts | 321° |
| 2026-05-05 09:23 | 41.15465 | 22.86129 | 36094 ft | 446 kts | 320° |
| 2026-05-05 09:24 | 41.20234 | 22.80832 | 36084 ft | 446 kts | 320° |
| 2026-05-05 09:24 | 41.24927 | 22.75500 | 36094 ft | 445 kts | 314° |
| 2026-05-05 09:25 | 41.29124 | 22.69411 | 36101 ft | 448 kts | 313° |
| 2026-05-05 09:25 | 41.33299 | 22.63302 | 36105 ft | 447 kts | 313° |
| 2026-05-05 09:26 | 41.37486 | 22.57163 | 36109 ft | 447 kts | 313° |
| 2026-05-05 09:26 | 41.41674 | 22.51013 | 36113 ft | 447 kts | 313° |
| 2026-05-05 09:27 | 41.45825 | 22.44900 | 36118 ft | 447 kts | 313° |
| 2026-05-05 09:27 | 41.50001 | 22.38742 | 36123 ft | 447 kts | 313° |
| 2026-05-05 09:28 | 41.54172 | 22.32575 | 36121 ft | 447 kts | 313° |
| 2026-05-05 09:28 | 41.58316 | 22.26437 | 36121 ft | 447 kts | 313° |
| 2026-05-05 09:29 | 41.62473 | 22.20266 | 36110 ft | 446 kts | 313° |
| 2026-05-05 09:29 | 41.66631 | 22.14082 | 36114 ft | 446 kts | 313° |
| 2026-05-05 09:30 | 41.70759 | 22.07928 | 36119 ft | 446 kts | 313° |
| 2026-05-05 09:30 | 41.74914 | 22.01721 | 36118 ft | 446 kts | 313° |
| 2026-05-05 09:31 | 41.79050 | 21.95530 | 36114 ft | 446 kts | 313° |
| 2026-05-05 09:31 | 41.83184 | 21.89330 | 36109 ft | 446 kts | 313° |
| 2026-05-05 09:32 | 41.87318 | 21.83117 | 36106 ft | 446 kts | 313° |
| 2026-05-05 09:32 | 41.91449 | 21.76894 | 36097 ft | 445 kts | 313° |
| 2026-05-05 09:33 | 41.95569 | 21.70675 | 36100 ft | 445 kts | 312° |
| 2026-05-05 09:33 | 41.99656 | 21.64494 | 36095 ft | 445 kts | 312° |
| 2026-05-05 09:34 | 42.03784 | 21.58235 | 36095 ft | 446 kts | 312° |
| 2026-05-05 09:34 | 42.07896 | 21.51990 | 36104 ft | 445 kts | 312° |
| 2026-05-05 09:35 | 42.11996 | 21.45748 | 36107 ft | 446 kts | 312° |
| 2026-05-05 09:35 | 42.18104 | 21.36370 | 36110 ft | 444 kts | 311° |
| 2026-05-05 09:36 | 42.22084 | 21.29973 | 36120 ft | 446 kts | 311° |
| 2026-05-05 09:36 | 42.26121 | 21.23610 | 36118 ft | 446 kts | 311° |
| 2026-05-05 09:37 | 42.30140 | 21.17192 | 36119 ft | 447 kts | 311° |
| 2026-05-05 09:37 | 42.34171 | 21.10777 | 36124 ft | 447 kts | 311° |
| 2026-05-05 09:38 | 42.38161 | 21.04396 | 36122 ft | 447 kts | 310° |
| 2026-05-05 09:38 | 42.42175 | 20.97969 | 36127 ft | 446 kts | 310° |
| 2026-05-05 09:39 | 42.46189 | 20.91526 | 36137 ft | 447 kts | 310° |
| 2026-05-05 09:39 | 42.50195 | 20.85082 | 36140 ft | 447 kts | 310° |
| 2026-05-05 09:40 | 42.54201 | 20.78625 | 36135 ft | 447 kts | 310° |
| 2026-05-05 09:40 | 42.58182 | 20.72194 | 36132 ft | 448 kts | 310° |
| 2026-05-05 09:41 | 42.62192 | 20.65701 | 36125 ft | 448 kts | 310° |
| 2026-05-05 09:41 | 42.66199 | 20.59199 | 36120 ft | 448 kts | 310° |
| 2026-05-05 09:42 | 42.70174 | 20.52736 | 36115 ft | 448 kts | 310° |
| 2026-05-05 09:42 | 42.74171 | 20.46220 | 36112 ft | 448 kts | 309° |
| 2026-05-05 09:43 | 42.78166 | 20.39695 | 36104 ft | 449 kts | 309° |
| 2026-05-05 09:43 | 42.82138 | 20.33194 | 36114 ft | 449 kts | 309° |
| 2026-05-05 09:44 | 42.86140 | 20.26628 | 36113 ft | 449 kts | 309° |
| 2026-05-05 09:44 | 42.90137 | 20.20058 | 36099 ft | 449 kts | 309° |
| 2026-05-05 09:45 | 42.94108 | 20.13514 | 36080 ft | 450 kts | 309° |
| 2026-05-05 09:45 | 42.98087 | 20.06945 | 36094 ft | 450 kts | 309° |
| 2026-05-05 09:46 | 43.02075 | 20.00345 | 36095 ft | 449 kts | 309° |
| 2026-05-05 09:46 | 43.06059 | 19.93736 | 36089 ft | 449 kts | 309° |
| 2026-05-05 09:47 | 43.10018 | 19.87155 | 36092 ft | 446 kts | 309° |
| 2026-05-05 09:47 | 43.13875 | 19.80728 | 36071 ft | 433 kts | 308° |
| 2026-05-05 09:48 | 43.17677 | 19.74380 | 36087 ft | 431 kts | 308° |
| 2026-05-05 09:48 | 43.21510 | 19.67970 | 36089 ft | 440 kts | 308° |
| 2026-05-05 09:49 | 43.25437 | 19.61375 | 36092 ft | 451 kts | 308° |
| 2026-05-05 09:49 | 43.29421 | 19.54682 | 36087 ft | 453 kts | 308° |
| 2026-05-05 09:50 | 43.33410 | 19.47958 | 36093 ft | 453 kts | 308° |
| 2026-05-05 09:50 | 43.37369 | 19.41274 | 36089 ft | 454 kts | 308° |
| 2026-05-05 09:51 | 43.41356 | 19.34527 | 36080 ft | 454 kts | 308° |
| 2026-05-05 09:51 | 43.45332 | 19.27783 | 36079 ft | 454 kts | 308° |
| 2026-05-05 09:52 | 43.49309 | 19.21021 | 36083 ft | 454 kts | 308° |
| 2026-05-05 09:52 | 43.53257 | 19.14301 | 36085 ft | 454 kts | 309° |
| 2026-05-05 09:53 | 43.57370 | 19.07680 | 36078 ft | 455 kts | 309° |
| 2026-05-05 09:53 | 43.61485 | 19.00999 | 36075 ft | 456 kts | 309° |
| 2026-05-05 09:54 | 43.65614 | 18.94325 | 36080 ft | 456 kts | 309° |
| 2026-05-05 09:54 | 43.69719 | 18.87643 | 36076 ft | 457 kts | 309° |
| 2026-05-05 09:55 | 43.73832 | 18.80952 | 36074 ft | 457 kts | 309° |
| 2026-05-05 09:55 | 43.77922 | 18.74272 | 36076 ft | 457 kts | 309° |
| 2026-05-05 09:56 | 43.82033 | 18.67548 | 36076 ft | 458 kts | 309° |
| 2026-05-05 09:56 | 43.86146 | 18.60802 | 36076 ft | 458 kts | 308° |
| 2026-05-05 09:57 | 43.90261 | 18.54038 | 36083 ft | 458 kts | 308° |
| 2026-05-05 09:57 | 43.93678 | 18.48410 | 36080 ft | 458 kts | 308° |
| 2026-05-05 09:58 | 43.98449 | 18.40532 | 36079 ft | 459 kts | 308° |
| 2026-05-05 09:58 | 44.02548 | 18.33746 | 36072 ft | 458 kts | 308° |
| 2026-05-05 09:59 | 44.05967 | 18.28074 | 36066 ft | 459 kts | 308° |
| 2026-05-05 09:59 | 44.10059 | 18.21270 | 36065 ft | 460 kts | 308° |
| 2026-05-05 10:00 | 44.14170 | 18.14418 | 36054 ft | 460 kts | 308° |
| 2026-05-05 10:00 | 44.18277 | 18.07559 | 36056 ft | 460 kts | 308° |
| 2026-05-05 10:01 | 44.22345 | 18.00745 | 36045 ft | 459 kts | 308° |
| 2026-05-05 10:01 | 44.26425 | 17.93898 | 36043 ft | 459 kts | 308° |
| 2026-05-05 10:02 | 44.30515 | 17.87015 | 36029 ft | 460 kts | 308° |
| 2026-05-05 10:02 | 44.34609 | 17.80110 | 36030 ft | 461 kts | 308° |
| 2026-05-05 10:03 | 44.38733 | 17.73324 | 36026 ft | 461 kts | 309° |
| 2026-05-05 10:03 | 44.42905 | 17.66517 | 36021 ft | 461 kts | 309° |
| 2026-05-05 10:04 | 44.47120 | 17.59730 | 36021 ft | 461 kts | 309° |
| 2026-05-05 10:04 | 44.51305 | 17.52932 | 36020 ft | 460 kts | 309° |
| 2026-05-05 10:05 | 44.55497 | 17.46120 | 36012 ft | 461 kts | 309° |
| 2026-05-05 10:05 | 44.59665 | 17.39328 | 36013 ft | 462 kts | 309° |
| 2026-05-05 10:06 | 44.63851 | 17.32490 | 36014 ft | 462 kts | 309° |
| 2026-05-05 10:06 | 44.68072 | 17.25689 | 35998 ft | 462 kts | 309° |
| 2026-05-05 10:07 | 44.72289 | 17.18858 | 36002 ft | 461 kts | 309° |
| 2026-05-05 10:07 | 44.76478 | 17.12059 | 36000 ft | 461 kts | 309° |
| 2026-05-05 10:08 | 44.80675 | 17.05233 | 36002 ft | 461 kts | 308° |
| 2026-05-05 10:08 | 44.84820 | 16.98360 | 36023 ft | 461 kts | 307° |
| 2026-05-05 10:09 | 44.88955 | 16.91411 | 36007 ft | 463 kts | 308° |
| 2026-05-05 10:09 | 44.93069 | 16.84397 | 36015 ft | 464 kts | 307° |
| 2026-05-05 10:10 | 44.97194 | 16.77373 | 36017 ft | 464 kts | 308° |
| 2026-05-05 10:10 | 45.01311 | 16.70344 | 36017 ft | 464 kts | 307° |
| 2026-05-05 10:11 | 45.05422 | 16.63302 | 36014 ft | 464 kts | 307° |
| 2026-05-05 10:11 | 45.09528 | 16.56257 | 36013 ft | 464 kts | 307° |
| 2026-05-05 10:12 | 45.13643 | 16.49172 | 36015 ft | 465 kts | 307° |
| 2026-05-05 10:12 | 45.17704 | 16.42108 | 36015 ft | 465 kts | 306° |
| 2026-05-05 10:13 | 45.21742 | 16.34957 | 36013 ft | 465 kts | 307° |
| 2026-05-05 10:13 | 45.25808 | 16.27811 | 36012 ft | 465 kts | 306° |
| 2026-05-05 10:14 | 45.29854 | 16.20639 | 36015 ft | 465 kts | 307° |
| 2026-05-05 10:14 | 45.33903 | 16.13468 | 36017 ft | 465 kts | 306° |
| 2026-05-05 10:15 | 45.37947 | 16.06274 | 36015 ft | 466 kts | 306° |
| 2026-05-05 10:15 | 45.41966 | 15.99114 | 36023 ft | 466 kts | 306° |
| 2026-05-05 10:16 | 45.46012 | 15.91883 | 36021 ft | 466 kts | 306° |
| 2026-05-05 10:16 | 45.50058 | 15.84635 | 36020 ft | 467 kts | 306° |
| 2026-05-05 10:17 | 45.54071 | 15.77427 | 36021 ft | 468 kts | 306° |
| 2026-05-05 10:17 | 45.58115 | 15.70145 | 36019 ft | 468 kts | 306° |
| 2026-05-05 10:18 | 45.62158 | 15.62847 | 36021 ft | 468 kts | 306° |
| 2026-05-05 10:18 | 45.66197 | 15.55536 | 36022 ft | 468 kts | 306° |
| 2026-05-05 10:19 | 45.70237 | 15.48204 | 36018 ft | 469 kts | 306° |
| 2026-05-05 10:19 | 45.74257 | 15.40891 | 36018 ft | 470 kts | 306° |
| 2026-05-05 10:20 | 45.78362 | 15.33619 | 36037 ft | 470 kts | 309° |
| 2026-05-05 10:20 | 45.82704 | 15.26585 | 36019 ft | 471 kts | 308° |
| 2026-05-05 10:21 | 45.87045 | 15.19525 | 36022 ft | 472 kts | 309° |
| 2026-05-05 10:21 | 45.91395 | 15.12444 | 36021 ft | 472 kts | 308° |
| 2026-05-05 10:22 | 45.95713 | 15.05385 | 36017 ft | 473 kts | 308° |
| 2026-05-05 10:22 | 46.00070 | 14.98255 | 36019 ft | 473 kts | 308° |
| 2026-05-05 10:23 | 46.04382 | 14.91172 | 36021 ft | 473 kts | 308° |
| 2026-05-05 10:23 | 46.08725 | 14.84024 | 36020 ft | 472 kts | 308° |
| 2026-05-05 10:24 | 46.13019 | 14.76935 | 36019 ft | 472 kts | 308° |
| 2026-05-05 10:24 | 46.17342 | 14.69783 | 36024 ft | 472 kts | 308° |
| 2026-05-05 10:25 | 46.21651 | 14.62633 | 36031 ft | 472 kts | 308° |
| 2026-05-05 10:25 | 46.25966 | 14.55456 | 36028 ft | 472 kts | 308° |
| 2026-05-05 10:26 | 46.30246 | 14.48317 | 36021 ft | 473 kts | 308° |
| 2026-05-05 10:26 | 46.34557 | 14.41110 | 36027 ft | 474 kts | 308° |
| 2026-05-05 10:27 | 46.38868 | 14.33883 | 36023 ft | 474 kts | 308° |
| 2026-05-05 10:27 | 46.43173 | 14.26647 | 35984 ft | 474 kts | 308° |
| 2026-05-05 10:28 | 46.47477 | 14.19394 | 35982 ft | 474 kts | 308° |
| 2026-05-05 10:28 | 46.51783 | 14.12116 | 35979 ft | 475 kts | 308° |
| 2026-05-05 10:29 | 46.56079 | 14.04837 | 35975 ft | 477 kts | 307° |
| 2026-05-05 10:29 | 46.60399 | 13.97498 | 35979 ft | 477 kts | 307° |
| 2026-05-05 10:30 | 46.64721 | 13.90136 | 35974 ft | 478 kts | 307° |
| 2026-05-05 10:30 | 46.69034 | 13.82769 | 35972 ft | 478 kts | 307° |
| 2026-05-05 10:31 | 46.73341 | 13.75394 | 35969 ft | 476 kts | 307° |
| 2026-05-05 10:31 | 46.77634 | 13.68021 | 35972 ft | 477 kts | 307° |
| 2026-05-05 10:32 | 46.81900 | 13.60676 | 35971 ft | 477 kts | 307° |
| 2026-05-05 10:32 | 46.86193 | 13.53264 | 35969 ft | 478 kts | 307° |
| 2026-05-05 10:33 | 46.90479 | 13.45843 | 35959 ft | 477 kts | 307° |
| 2026-05-05 10:33 | 46.94762 | 13.38409 | 35951 ft | 478 kts | 307° |
| 2026-05-05 10:34 | 46.99039 | 13.30964 | 35943 ft | 477 kts | 307° |
| 2026-05-05 10:34 | 47.03288 | 13.23547 | 35934 ft | 477 kts | 307° |
| 2026-05-05 10:35 | 47.07549 | 13.16091 | 35928 ft | 477 kts | 307° |
| 2026-05-05 10:35 | 47.11807 | 13.08618 | 35926 ft | 477 kts | 307° |
| 2026-05-05 10:36 | 47.16066 | 13.01122 | 35901 ft | 477 kts | 306° |
| 2026-05-05 10:36 | 47.20310 | 12.93632 | 35889 ft | 477 kts | 306° |
| 2026-05-05 10:37 | 47.24556 | 12.86121 | 35877 ft | 478 kts | 306° |
| 2026-05-05 10:37 | 47.28799 | 12.78592 | 35878 ft | 477 kts | 306° |
| 2026-05-05 10:38 | 47.33015 | 12.71090 | 35868 ft | 478 kts | 306° |
| 2026-05-05 10:38 | 47.37246 | 12.63541 | 35858 ft | 478 kts | 306° |
| 2026-05-05 10:39 | 47.41483 | 12.55960 | 35852 ft | 479 kts | 306° |
| 2026-05-05 10:39 | 47.45723 | 12.48352 | 35842 ft | 479 kts | 306° |
| 2026-05-05 10:40 | 47.49955 | 12.40738 | 35834 ft | 479 kts | 306° |
| 2026-05-05 10:40 | 47.54186 | 12.33104 | 35828 ft | 480 kts | 306° |
| 2026-05-05 10:41 | 47.58411 | 12.25463 | 35828 ft | 478 kts | 306° |
| 2026-05-05 10:41 | 47.62640 | 12.17784 | 35818 ft | 482 kts | 306° |
| 2026-05-05 10:42 | 47.68712 | 12.06038 | 35827 ft | 477 kts | 298° |
| 2026-05-05 10:43 | 47.72299 | 11.97714 | 35821 ft | 478 kts | 299° |
| 2026-05-05 10:43 | 47.75266 | 11.90775 | 35810 ft | 478 kts | 298° |
| 2026-05-05 10:44 | 47.78825 | 11.82419 | 35818 ft | 478 kts | 298° |
| 2026-05-05 10:44 | 47.82388 | 11.74050 | 35817 ft | 478 kts | 298° |
| 2026-05-05 10:45 | 47.85949 | 11.65644 | 35824 ft | 478 kts | 298° |
| 2026-05-05 10:45 | 47.89474 | 11.57306 | 35839 ft | 478 kts | 298° |
| 2026-05-05 10:46 | 47.93013 | 11.48906 | 35844 ft | 478 kts | 298° |
| 2026-05-05 10:46 | 47.96545 | 11.40497 | 35864 ft | 478 kts | 298° |
| 2026-05-05 10:47 | 48.00070 | 11.32080 | 35866 ft | 478 kts | 297° |
| 2026-05-05 10:47 | 48.03591 | 11.23645 | 35864 ft | 478 kts | 297° |
| 2026-05-05 10:48 | 48.07086 | 11.15244 | 35857 ft | 478 kts | 297° |
| 2026-05-05 10:48 | 48.10590 | 11.06799 | 35845 ft | 478 kts | 297° |
| 2026-05-05 10:49 | 48.14094 | 10.98327 | 35855 ft | 477 kts | 297° |
| 2026-05-05 10:49 | 48.17588 | 10.89850 | 35866 ft | 477 kts | 297° |
| 2026-05-05 10:50 | 48.21055 | 10.81414 | 35866 ft | 478 kts | 297° |
| 2026-05-05 10:50 | 48.24542 | 10.72901 | 35866 ft | 479 kts | 297° |
| 2026-05-05 10:51 | 48.28030 | 10.64361 | 35860 ft | 480 kts | 297° |
| 2026-05-05 10:51 | 48.31516 | 10.55796 | 35837 ft | 480 kts | 297° |
| 2026-05-05 10:52 | 48.35001 | 10.47206 | 35838 ft | 481 kts | 297° |
| 2026-05-05 10:52 | 48.38457 | 10.38661 | 35840 ft | 482 kts | 297° |
| 2026-05-05 10:53 | 48.41945 | 10.30010 | 35851 ft | 483 kts | 297° |
| 2026-05-05 10:53 | 48.45423 | 10.21356 | 35856 ft | 483 kts | 297° |
| 2026-05-05 10:54 | 48.48898 | 10.12680 | 35855 ft | 483 kts | 296° |
| 2026-05-05 10:54 | 48.52371 | 10.03981 | 35856 ft | 484 kts | 296° |
| 2026-05-05 10:55 | 48.55823 | 9.95309 | 35855 ft | 485 kts | 296° |
| 2026-05-05 10:55 | 48.59290 | 9.86567 | 35848 ft | 484 kts | 296° |
| 2026-05-05 10:56 | 48.62750 | 9.77818 | 35846 ft | 484 kts | 296° |
| 2026-05-05 10:56 | 48.66199 | 9.69066 | 35849 ft | 484 kts | 296° |
| 2026-05-05 10:57 | 48.70124 | 9.60713 | 35854 ft | 489 kts | 302° |
| 2026-05-05 10:57 | 48.74203 | 9.52470 | 35856 ft | 489 kts | 302° |
| 2026-05-05 10:58 | 48.78288 | 9.44288 | 35857 ft | 489 kts | 302° |
| 2026-05-05 10:58 | 48.82347 | 9.36080 | 35858 ft | 489 kts | 302° |
| 2026-05-05 10:59 | 48.86458 | 9.27769 | 35856 ft | 489 kts | 302° |
| 2026-05-05 10:59 | 48.90532 | 9.19492 | 35860 ft | 489 kts | 302° |
| 2026-05-05 11:00 | 48.94604 | 9.11201 | 35856 ft | 488 kts | 302° |
| 2026-05-05 11:00 | 48.98660 | 9.02914 | 35848 ft | 488 kts | 302° |
| 2026-05-05 11:01 | 49.02710 | 8.94618 | 35848 ft | 488 kts | 302° |
| 2026-05-05 11:01 | 49.06738 | 8.86338 | 35847 ft | 488 kts | 301° |
| 2026-05-05 11:02 | 49.10780 | 8.78004 | 35854 ft | 488 kts | 302° |
| 2026-05-05 11:02 | 49.14820 | 8.69648 | 35849 ft | 488 kts | 302° |
| 2026-05-05 11:03 | 49.18819 | 8.61350 | 35859 ft | 488 kts | 301° |
| 2026-05-05 11:03 | 49.22844 | 8.52974 | 35856 ft | 489 kts | 301° |
| 2026-05-05 11:04 | 49.26864 | 8.44582 | 35864 ft | 488 kts | 301° |
| 2026-05-05 11:04 | 49.30874 | 8.36183 | 35863 ft | 489 kts | 301° |
| 2026-05-05 11:05 | 49.34894 | 8.27736 | 35863 ft | 490 kts | 301° |
| 2026-05-05 11:05 | 49.38900 | 8.19294 | 35863 ft | 489 kts | 301° |
| 2026-05-05 11:06 | 49.42224 | 8.12268 | 35862 ft | 490 kts | 301° |
| 2026-05-05 11:06 | 49.46908 | 8.02335 | 35854 ft | 491 kts | 301° |
| 2026-05-05 11:07 | 49.50905 | 7.93832 | 35856 ft | 491 kts | 301° |
| 2026-05-05 11:07 | 49.54898 | 7.85307 | 35860 ft | 491 kts | 301° |
| 2026-05-05 11:08 | 49.58861 | 7.76821 | 35860 ft | 490 kts | 301° |
| 2026-05-05 11:08 | 49.62839 | 7.68275 | 35860 ft | 490 kts | 301° |
| 2026-05-05 11:09 | 49.66805 | 7.59727 | 35860 ft | 489 kts | 301° |
| 2026-05-05 11:09 | 49.70765 | 7.51166 | 35858 ft | 489 kts | 300° |
| 2026-05-05 11:10 | 49.74711 | 7.42606 | 35880 ft | 489 kts | 300° |
| 2026-05-05 11:10 | 49.78630 | 7.34076 | 35875 ft | 489 kts | 300° |
| 2026-05-05 11:11 | 49.82570 | 7.25475 | 35881 ft | 489 kts | 300° |
| 2026-05-05 11:11 | 49.86498 | 7.16872 | 35882 ft | 489 kts | 300° |
| 2026-05-05 11:12 | 49.90423 | 7.08247 | 35882 ft | 490 kts | 300° |
| 2026-05-05 11:12 | 49.94345 | 6.99599 | 35877 ft | 490 kts | 300° |
| 2026-05-05 11:13 | 49.98272 | 6.90915 | 35852 ft | 490 kts | 300° |
| 2026-05-05 11:13 | 50.02180 | 6.82242 | 35853 ft | 488 kts | 300° |
| 2026-05-05 11:14 | 50.06074 | 6.73573 | 35851 ft | 489 kts | 300° |
| 2026-05-05 11:14 | 50.09927 | 6.64967 | 35844 ft | 487 kts | 300° |
| 2026-05-05 11:15 | 50.13802 | 6.56283 | 35846 ft | 486 kts | 300° |
| 2026-05-05 11:15 | 50.17662 | 6.47604 | 35845 ft | 487 kts | 300° |
| 2026-05-05 11:16 | 50.21267 | 6.38704 | 35843 ft | 485 kts | 297° |
| 2026-05-05 11:16 | 50.24820 | 6.29790 | 35841 ft | 486 kts | 297° |
| 2026-05-05 11:17 | 50.28341 | 6.20776 | 35840 ft | 486 kts | 297° |
| 2026-05-05 11:17 | 50.31894 | 6.11732 | 35849 ft | 486 kts | 297° |
| 2026-05-05 11:18 | 50.35424 | 6.02674 | 35852 ft | 487 kts | 297° |
| 2026-05-05 11:18 | 50.38922 | 5.93686 | 35865 ft | 486 kts | 297° |
| 2026-05-05 11:19 | 50.42431 | 5.84628 | 35860 ft | 486 kts | 297° |
| 2026-05-05 11:19 | 50.45939 | 5.75546 | 35875 ft | 486 kts | 297° |
| 2026-05-05 11:20 | 50.49437 | 5.66456 | 35884 ft | 486 kts | 296° |
| 2026-05-05 11:20 | 50.52939 | 5.57327 | 35894 ft | 486 kts | 296° |
| 2026-05-05 11:21 | 50.56404 | 5.48260 | 35891 ft | 487 kts | 296° |
| 2026-05-05 11:21 | 50.59885 | 5.39117 | 35892 ft | 486 kts | 296° |
| 2026-05-05 11:22 | 50.63361 | 5.29958 | 35896 ft | 486 kts | 296° |
| 2026-05-05 11:22 | 50.66825 | 5.20797 | 35897 ft | 486 kts | 296° |
| 2026-05-05 11:23 | 50.70280 | 5.11627 | 35874 ft | 486 kts | 296° |
| 2026-05-05 11:23 | 50.73724 | 5.02457 | 35878 ft | 485 kts | 296° |
| 2026-05-05 11:24 | 50.77152 | 4.93293 | 35897 ft | 485 kts | 296° |
| 2026-05-05 11:24 | 50.80576 | 4.84108 | 35906 ft | 484 kts | 296° |
| 2026-05-05 11:25 | 50.83970 | 4.74971 | 35917 ft | 484 kts | 296° |
| 2026-05-05 11:25 | 50.87379 | 4.65761 | 35921 ft | 484 kts | 296° |
| 2026-05-05 11:26 | 50.90774 | 4.56556 | 35918 ft | 484 kts | 296° |
| 2026-05-05 11:26 | 50.94143 | 4.47388 | 35915 ft | 484 kts | 296° |
| 2026-05-05 11:27 | 50.97530 | 4.38141 | 35920 ft | 484 kts | 296° |
| 2026-05-05 11:27 | 51.00356 | 4.30395 | 35920 ft | 484 kts | 296° |
| 2026-05-05 11:28 | 51.03699 | 4.21204 | 35920 ft | 484 kts | 296° |
| 2026-05-05 11:28 | 51.07064 | 4.11920 | 35931 ft | 484 kts | 296° |
| 2026-05-05 11:29 | 51.10419 | 4.02632 | 35918 ft | 483 kts | 296° |
| 2026-05-05 11:29 | 51.13760 | 3.93344 | 35912 ft | 484 kts | 296° |
| 2026-05-05 11:30 | 51.17085 | 3.84072 | 35910 ft | 484 kts | 296° |
| 2026-05-05 11:30 | 51.20418 | 3.74738 | 35918 ft | 484 kts | 296° |
| 2026-05-05 11:31 | 51.23505 | 3.65220 | 35954 ft | 479 kts | 285° |
| 2026-05-05 11:31 | 51.25048 | 3.54989 | 35934 ft | 476 kts | 279° |
| 2026-05-05 11:32 | 51.26427 | 3.44621 | 35934 ft | 476 kts | 279° |
| 2026-05-05 11:32 | 51.27775 | 3.34283 | 35937 ft | 475 kts | 279° |
| 2026-05-05 11:33 | 51.29098 | 3.23939 | 35942 ft | 475 kts | 279° |
| 2026-05-05 11:33 | 51.30422 | 3.13585 | 35944 ft | 475 kts | 279° |
| 2026-05-05 11:34 | 51.31731 | 3.03231 | 35947 ft | 475 kts | 279° |
| 2026-05-05 11:34 | 51.33025 | 2.92938 | 35940 ft | 474 kts | 279° |
| 2026-05-05 11:35 | 51.34316 | 2.82578 | 35946 ft | 475 kts | 279° |
| 2026-05-05 11:35 | 51.35596 | 2.72239 | 35951 ft | 476 kts | 279° |
| 2026-05-05 11:36 | 51.36883 | 2.61822 | 35949 ft | 476 kts | 279° |
| 2026-05-05 11:36 | 51.38156 | 2.51420 | 35950 ft | 475 kts | 279° |
| 2026-05-05 11:37 | 51.39418 | 2.41027 | 35956 ft | 475 kts | 279° |
| 2026-05-05 11:37 | 51.40672 | 2.30628 | 35961 ft | 475 kts | 279° |
| 2026-05-05 11:38 | 51.41917 | 2.20298 | 35963 ft | 474 kts | 279° |
| 2026-05-05 11:38 | 51.43198 | 2.09900 | 35963 ft | 474 kts | 279° |
| 2026-05-05 11:39 | 51.44923 | 1.99764 | 35975 ft | 478 kts | 294° |
| 2026-05-05 11:39 | 51.48537 | 1.90728 | 35969 ft | 482 kts | 303° |
| 2026-05-05 11:40 | 51.52437 | 1.81971 | 35974 ft | 482 kts | 303° |
| 2026-05-05 11:40 | 51.56340 | 1.73186 | 35977 ft | 482 kts | 303° |
| 2026-05-05 11:41 | 51.60222 | 1.64409 | 35981 ft | 481 kts | 303° |
| 2026-05-05 11:41 | 51.64093 | 1.55634 | 35980 ft | 480 kts | 303° |
| 2026-05-05 11:42 | 51.67933 | 1.46896 | 35983 ft | 481 kts | 303° |
| 2026-05-05 11:42 | 51.71790 | 1.38093 | 35984 ft | 481 kts | 303° |
| 2026-05-05 11:43 | 51.75644 | 1.29261 | 35964 ft | 481 kts | 303° |
| 2026-05-05 11:43 | 51.79502 | 1.20394 | 35962 ft | 482 kts | 303° |
| 2026-05-05 11:44 | 51.83333 | 1.11557 | 35971 ft | 482 kts | 303° |
| 2026-05-05 11:44 | 51.87179 | 1.02655 | 35968 ft | 482 kts | 303° |
| 2026-05-05 11:45 | 51.90765 | 0.94328 | 35964 ft | 483 kts | 303° |
| 2026-05-05 11:45 | 51.93630 | 0.87656 | 35965 ft | 483 kts | 303° |